Time;durP1;ratioP1;P1;durP2;ratioP2;P2;SDS_P1;SDS_P2;PMS_P1;PMS_P2;Temp;Humidity;BMP_temperature;BMP_pressure;BME280_temperature;BME280_humidity;BME280_pressure;Samples;Min_cycle;Max_cycle;Signal;HPM_P1;HPM_P2
2023/07/08 00:02:21;;;;;;;23.27;14.33;;;;;;;;;;10459377;28;20357;-73
2023/07/08 00:07:22;;;;;;;23.83;14.95;;;;;;;;;;10459223;28;20097;-74
2023/07/08 00:12:22;;;;;;;20.27;14.32;;;;;;;;;;10457564;28;20021;-73
2023/07/08 00:17:23;;;;;;;27.45;16.08;;;;;;;;;;10458695;28;20049;-72
2023/07/08 00:22:24;;;;;;;33.75;16.10;;;;;;;;;;10458517;28;20249;-73
2023/07/08 00:27:24;;;;;;;29.52;17.13;;;;;;;;;;10458778;28;20299;-73
2023/07/08 00:32:26;;;;;;;25.88;17.15;;;;;;;;;;10458484;28;20238;-73
2023/07/08 00:37:29;;;;;;;25.08;18.08;;;;;;;;;;10458405;28;20032;-74
2023/07/08 00:42:29;;;;;;;23.67;17.15;;;;;;;;;;10462300;28;20021;-73
2023/07/08 00:47:30;;;;;;;22.30;16.43;;;;;;;;;;10456953;28;20048;-72
2023/07/08 00:52:30;;;;;;;22.50;16.33;;;;;;;;;;10458176;28;20045;-72
2023/07/08 00:57:33;;;;;;;24.95;16.73;;;;;;;;;;10458352;28;20082;-72
2023/07/08 01:02:35;;;;;;;24.23;17.42;;;;;;;;;;10457933;28;20123;-73
2023/07/08 01:07:36;;;;;;;28.67;16.60;;;;;;;;;;10458666;28;20016;-72
2023/07/08 01:12:39;;;;;;;26.35;18.02;;;;;;;;;;10466322;28;20238;-73
2023/07/08 01:17:40;;;;;;;23.45;17.63;;;;;;;;;;10465962;28;20252;-72
2023/07/08 01:22:41;;;;;;;25.10;17.25;;;;;;;;;;10465269;28;20295;-72
2023/07/08 01:27:43;;;;;;;24.33;17.58;;;;;;;;;;10464164;28;20030;-72
2023/07/08 01:32:56;;;;;;;20.33;16.00;;;;;;;;;;10465106;28;20071;-72
2023/07/08 01:38:00;;;;;;;23.95;16.55;;;;;;;;;;10465252;28;20013;-72
2023/07/08 01:43:01;;;;;;;29.60;18.77;;;;;;;;;;10464990;28;20081;-72
2023/07/08 01:48:02;;;;;;;21.42;16.83;;;;;;;;;;10464779;28;20016;-72
2023/07/08 01:53:04;;;;;;;27.88;17.48;;;;;;;;;;10464620;28;20100;-72
2023/07/08 01:58:04;;;;;;;23.88;17.13;;;;;;;;;;10465157;28;20322;-71
2023/07/08 02:03:05;;;;;;;22.90;17.23;;;;;;;;;;10464173;28;20044;-72
2023/07/08 02:08:05;;;;;;;24.42;15.27;;;;;;;;;;10463989;28;20277;-72
2023/07/08 02:13:06;;;;;;;22.13;15.77;;;;;;;;;;10463973;28;20088;-72
2023/07/08 02:18:06;;;;;;;21.40;14.93;;;;;;;;;;10463154;28;20091;-72
2023/07/08 02:23:06;;;;;;;23.70;16.05;;;;;;;;;;10463016;28;20330;-71
2023/07/08 02:28:06;;;;;;;19.75;15.48;;;;;;;;;;10463321;28;20021;-72
2023/07/08 02:33:09;;;;;;;21.73;14.63;;;;;;;;;;10463034;28;20641;-72
2023/07/08 02:38:09;;;;;;;28.75;15.48;;;;;;;;;;10462750;28;20020;-73
2023/07/08 02:43:10;;;;;;;20.25;13.90;;;;;;;;;;10462718;28;20323;-73
2023/07/08 02:48:10;;;;;;;18.35;14.20;;;;;;;;;;10462517;28;20036;-73
2023/07/08 02:53:10;;;;;;;22.98;16.33;;;;;;;;;;10462412;28;20053;-73
2023/07/08 02:58:10;;;;;;;20.90;15.23;;;;;;;;;;10462938;28;20317;-73
2023/07/08 03:03:11;;;;;;;29.55;16.25;;;;;;;;;;10462062;28;20330;-73
2023/07/08 03:08:11;;;;;;;20.65;15.52;;;;;;;;;;10461625;28;20024;-72
2023/07/08 03:13:11;;;;;;;19.75;14.93;;;;;;;;;;10460011;28;20378;-71
2023/07/08 03:18:11;;;;;;;22.75;15.93;;;;;;;;;;10461274;28;20357;-71
2023/07/08 03:23:12;;;;;;;21.08;15.05;;;;;;;;;;10461083;28;20041;-74
2023/07/08 03:28:13;;;;;;;17.52;14.32;;;;;;;;;;10460690;28;20021;-73
2023/07/08 03:33:14;;;;;;;16.42;13.45;;;;;;;;;;10464100;28;20025;-73
2023/07/08 03:38:14;;;;;;;21.33;14.50;;;;;;;;;;10461071;28;20278;-73
2023/07/08 03:43:14;;;;;;;18.60;12.70;;;;;;;;;;10460174;28;20017;-73
2023/07/08 03:48:14;;;;;;;18.05;10.63;;;;;;;;;;10460169;28;20025;-73
2023/07/08 03:53:15;;;;;;;17.95;12.13;;;;;;;;;;10460001;28;20086;-73
2023/07/08 03:58:15;;;;;;;16.58;11.88;;;;;;;;;;10459701;28;20029;-73
2023/07/08 04:03:15;;;;;;;20.55;12.02;;;;;;;;;;10460094;28;20009;-73
2023/07/08 04:08:15;;;;;;;19.25;11.63;;;;;;;;;;10459435;28;20013;-73
2023/07/08 04:13:16;;;;;;;14.23;9.90;;;;;;;;;;10459259;28;20055;-73
2023/07/08 04:18:16;;;;;;;13.77;9.52;;;;;;;;;;10458922;28;20021;-73
2023/07/08 04:23:16;;;;;;;15.20;9.23;;;;;;;;;;10458783;28;20016;-73
2023/07/08 04:28:16;;;;;;;16.50;10.02;;;;;;;;;;10458799;28;20376;-73
2023/07/08 04:33:17;;;;;;;11.13;7.97;;;;;;;;;;10458582;28;20025;-73
2023/07/08 04:38:19;;;;;;;11.18;8.50;;;;;;;;;;10458396;28;20035;-73
2023/07/08 04:43:20;;;;;;;14.30;8.15;;;;;;;;;;10457429;28;20499;-73
2023/07/08 04:48:24;;;;;;;18.23;8.27;;;;;;;;;;10458222;28;20047;-72
2023/07/08 04:53:25;;;;;;;16.57;8.70;;;;;;;;;;10457902;28;20049;-73
2023/07/08 04:58:25;;;;;;;13.85;7.88;;;;;;;;;;10458581;28;20471;-72
2023/07/08 05:03:25;;;;;;;12.70;8.05;;;;;;;;;;10457610;28;20041;-72
2023/07/08 05:08:25;;;;;;;10.48;7.68;;;;;;;;;;10458014;28;20040;-71
2023/07/08 05:13:26;;;;;;;12.85;7.20;;;;;;;;;;10457815;28;20453;-72
2023/07/08 05:18:26;;;;;;;13.23;7.23;;;;;;;;;;10456445;28;20128;-71
2023/07/08 05:23:26;;;;;;;12.90;7.25;;;;;;;;;;10457707;28;20025;-72
2023/07/08 05:28:27;;;;;;;10.95;6.25;;;;;;;;;;10457304;28;20307;-72
2023/07/08 05:33:28;;;;;;;8.77;6.47;;;;;;;;;;10457343;28;20025;-71
2023/07/08 05:38:28;;;;;;;9.07;5.80;;;;;;;;;;10457356;28;20021;-72
2023/07/08 05:43:29;;;;;;;13.10;6.63;;;;;;;;;;10457331;28;20041;-72
2023/07/08 05:48:29;;;;;;;8.87;5.37;;;;;;;;;;10456871;28;20060;-72
2023/07/08 05:53:29;;;;;;;11.20;5.53;;;;;;;;;;10457406;28;20290;-72
2023/07/08 05:58:29;;;;;;;7.30;5.77;;;;;;;;;;10464249;28;20031;-72
2023/07/08 06:03:30;;;;;;;11.93;7.15;;;;;;;;;;10464681;28;20260;-72
2023/07/08 06:08:30;;;;;;;12.90;6.10;;;;;;;;;;10463749;28;20071;-72
2023/07/08 06:13:30;;;;;;;12.88;6.80;;;;;;;;;;10463692;28;20047;-72
2023/07/08 06:18:30;;;;;;;13.53;7.23;;;;;;;;;;10463513;28;20327;-72
2023/07/08 06:23:31;;;;;;;11.93;6.30;;;;;;;;;;10463081;28;20025;-72
2023/07/08 06:28:31;;;;;;;12.37;5.73;;;;;;;;;;10463106;28;20104;-72
2023/07/08 06:33:31;;;;;;;9.50;6.05;;;;;;;;;;10463624;28;20012;-71
2023/07/08 06:38:31;;;;;;;9.07;5.93;;;;;;;;;;10462356;28;20013;-72
2023/07/08 06:43:32;;;;;;;8.30;5.22;;;;;;;;;;10462347;28;20088;-73
2023/07/08 06:48:32;;;;;;;10.43;5.10;;;;;;;;;;10462530;28;20091;-72
2023/07/08 06:53:32;;;;;;;8.20;4.67;;;;;;;;;;10461685;28;20048;-72
2023/07/08 06:58:32;;;;;;;8.95;4.13;;;;;;;;;;10461918;28;20016;-72
2023/07/08 07:03:33;;;;;;;12.48;4.88;;;;;;;;;;10461663;28;20315;-71
2023/07/08 07:08:33;;;;;;;9.55;4.95;;;;;;;;;;10460741;28;20044;-72
2023/07/08 07:13:33;;;;;;;8.98;4.53;;;;;;;;;;10461103;28;20458;-72
2023/07/08 07:18:34;;;;;;;5.13;3.85;;;;;;;;;;10461274;28;20350;-72
2023/07/08 07:23:34;;;;;;;7.60;4.65;;;;;;;;;;10460942;28;20090;-73
2023/07/08 07:28:34;;;;;;;6.95;4.10;;;;;;;;;;10460826;28;20080;-71
2023/07/08 07:33:34;;;;;;;8.30;4.10;;;;;;;;;;10460396;28;20021;-72
2023/07/08 07:38:35;;;;;;;7.67;4.07;;;;;;;;;;10460467;28;20257;-73
2023/07/08 07:43:35;;;;;;;7.47;4.07;;;;;;;;;;10460413;28;20025;-72
2023/07/08 07:48:35;;;;;;;6.57;4.50;;;;;;;;;;10459574;28;20067;-72
2023/07/08 07:53:37;;;;;;;8.60;4.43;;;;;;;;;;10459749;28;20354;-74
2023/07/08 07:58:37;;;;;;;10.10;4.25;;;;;;;;;;10459928;28;20120;-72
2023/07/08 08:03:37;;;;;;;6.73;3.43;;;;;;;;;;10459144;28;20025;-72
2023/07/08 08:08:37;;;;;;;5.05;3.97;;;;;;;;;;10459295;28;20055;-73
2023/07/08 08:13:38;;;;;;;6.07;3.85;;;;;;;;;;10459253;28;20070;-72
2023/07/08 08:18:38;;;;;;;5.55;3.38;;;;;;;;;;10458823;28;20230;-72
2023/07/08 08:23:38;;;;;;;3.90;3.20;;;;;;;;;;10458671;28;20024;-72
2023/07/08 08:28:39;;;;;;;6.72;3.58;;;;;;;;;;10458690;28;20382;-72
2023/07/08 08:33:39;;;;;;;8.00;3.60;;;;;;;;;;10458315;28;20024;-73
2023/07/08 08:38:39;;;;;;;6.78;4.18;;;;;;;;;;10458156;28;20414;-72
2023/07/08 08:43:41;;;;;;;5.25;3.00;;;;;;;;;;10458470;28;20020;-72
2023/07/08 08:48:47;;;;;;;4.65;3.47;;;;;;;;;;10458162;28;20026;-72
2023/07/08 08:53:47;;;;;;;;;;;;;;;;;;10458414;28;20104;-71
2023/07/08 08:58:56;;;;;;;6.15;3.47;;;;;;;;;;10457916;28;20125;-73
2023/07/08 09:03:56;;;;;;;6.60;3.90;;;;;;;;;;10458001;28;20414;-71
2023/07/08 09:09:00;;;;;;;4.68;3.35;;;;;;;;;;10458122;28;20217;-71
2023/07/08 09:14:00;;;;;;;6.93;3.83;;;;;;;;;;10457521;28;20211;-73
2023/07/08 09:19:03;;;;;;;3.90;3.13;;;;;;;;;;10457533;28;20027;-73
2023/07/08 09:24:07;;;;;;;6.50;3.53;;;;;;;;;;10457272;28;20032;-72
2023/07/08 09:29:09;;;;;;;4.13;2.90;;;;;;;;;;10459031;28;20052;-74
2023/07/08 09:34:11;;;;;;;3.13;2.83;;;;;;;;;;10466049;28;20021;-72
2023/07/08 09:39:13;;;;;;;5.45;3.60;;;;;;;;;;10464842;28;20013;-72
2023/07/08 09:44:28;;;;;;;5.63;2.97;;;;;;;;;;10463782;28;20017;-73
2023/07/08 09:49:31;;;;;;;8.48;3.00;;;;;;;;;;10464898;28;20017;-73
2023/07/08 09:54:32;;;;;;;5.30;2.90;;;;;;;;;;10462551;28;20036;-71
2023/07/08 09:59:37;;;;;;;5.57;2.78;;;;;;;;;;10464294;28;20039;-72
2023/07/08 10:04:38;;;;;;;;;;;;;;;;;;10465183;28;20021;-72
2023/07/08 10:09:38;;;;;;;4.20;2.70;;;;;;;;;;10463750;28;20090;-74
2023/07/08 10:14:45;;;;;;;5.03;3.20;;;;;;;;;;10463613;28;20378;-71
2023/07/08 10:19:45;;;;;;;3.95;3.10;;;;;;;;;;10463915;28;20271;-73
2023/07/08 10:24:58;;;;;;;4.68;2.75;;;;;;;;;;10463090;28;20394;-73
2023/07/08 10:30:02;;;;;;;3.65;2.22;;;;;;;;;;10462842;28;20024;-71
2023/07/08 10:35:17;;;;;;;3.10;2.40;;;;;;;;;;10462669;28;20020;-72
2023/07/08 10:40:18;;;;;;;3.50;2.67;;;;;;;;;;10462731;28;20009;-72
2023/07/08 10:45:31;;;;;;;4.27;2.80;;;;;;;;;;10462575;28;20094;-72
2023/07/08 10:50:57;;;;;;;4.68;2.65;;;;;;;;;;10462386;28;20262;-72
2023/07/08 10:55:59;;;;;;;6.43;2.45;;;;;;;;;;10458309;28;20041;-72
2023/07/08 11:01:03;;;;;;;4.70;2.63;;;;;;;;;;10459831;28;20385;-72
2023/07/08 11:06:18;;;;;;;5.88;2.53;;;;;;;;;;10459925;28;20188;-72
2023/07/08 11:11:28;;;;;;;5.13;2.80;;;;;;;;;;10459898;28;20095;-72
2023/07/08 11:16:28;;;;;;;4.03;2.92;;;;;;;;;;10458959;28;20063;-73
2023/07/08 11:21:39;;;;;;;3.53;2.67;;;;;;;;;;10459436;28;20310;-73
2023/07/08 11:26:45;;;;;;;4.60;3.35;;;;;;;;;;10459120;28;20278;-72
2023/07/08 11:31:46;;;;;;;6.80;3.45;;;;;;;;;;10459048;28;20247;-72
2023/07/08 11:36:48;;;;;;;4.78;3.60;;;;;;;;;;10458414;28;20044;-72
2023/07/08 11:41:52;;;;;;;5.28;4.00;;;;;;;;;;10459295;28;20028;-72
2023/07/08 11:46:57;;;;;;;4.80;3.33;;;;;;;;;;10458389;28;20025;-72
2023/07/08 11:51:58;;;;;;;3.80;3.40;;;;;;;;;;10419974;28;1091387;-71
2023/07/08 11:57:00;;;;;;;5.20;3.95;;;;;;;;;;10459863;28;20617;-73
2023/07/08 12:02:02;;;;;;;6.85;3.80;;;;;;;;;;10462138;28;20017;-73
2023/07/08 12:07:08;;;;;;;9.48;4.25;;;;;;;;;;10459685;28;20318;-73
2023/07/08 12:12:20;;;;;;;6.72;3.00;;;;;;;;;;10459346;28;20039;-73
2023/07/08 12:17:21;;;;;;;6.68;3.22;;;;;;;;;;10458880;28;20059;-72
2023/07/08 12:22:21;;;;;;;4.97;3.38;;;;;;;;;;10458923;28;20215;-72
2023/07/08 12:27:21;;;;;;;7.15;3.30;;;;;;;;;;10458902;28;20405;-72
2023/07/08 12:32:25;;;;;;;5.05;3.00;;;;;;;;;;10458593;28;20101;-72
2023/07/08 12:37:26;;;;;;;5.18;3.40;;;;;;;;;;10458407;28;20214;-72
2023/07/08 12:42:26;;;;;;;5.10;3.35;;;;;;;;;;10458537;28;20089;-72
2023/07/08 12:47:27;;;;;;;5.40;3.13;;;;;;;;;;10458184;28;20266;-74
2023/07/08 12:52:27;;;;;;;4.82;3.33;;;;;;;;;;10457990;28;20246;-73
2023/07/08 12:57:28;;;;;;;6.03;3.25;;;;;;;;;;10458193;28;20251;-72
2023/07/08 13:02:32;;;;;;;5.90;2.95;;;;;;;;;;10457883;28;20222;-73
2023/07/08 13:07:40;;;;;;;3.60;2.95;;;;;;;;;;10466276;28;20044;-72
2023/07/08 13:12:40;;;;;;;12.38;2.80;;;;;;;;;;10463438;28;20327;-72
2023/07/08 13:17:41;;;;;;;5.20;2.80;;;;;;;;;;10465341;28;20021;-72
2023/07/08 13:22:45;;;;;;;4.47;2.63;;;;;;;;;;10466689;28;20017;-72
2023/07/08 13:28:02;;;;;;;5.95;3.03;;;;;;;;;;10463920;28;20370;-72
2023/07/08 13:33:03;;;;;;;5.88;3.00;;;;;;;;;;10464232;28;20233;-72
2023/07/08 13:38:04;;;;;;;5.15;2.38;;;;;;;;;;10465889;28;20331;-71
2023/07/08 13:43:04;;;;;;;6.25;2.85;;;;;;;;;;10465924;28;20028;-72
2023/07/08 13:48:14;;;;;;;5.20;2.47;;;;;;;;;;10494562;28;20051;-73
2023/07/08 13:53:22;;;;;;;5.43;2.67;;;;;;;;;;10505468;28;20068;-74
2023/07/08 13:58:26;;;;;;;6.25;2.75;;;;;;;;;;10506163;28;20021;-73
2023/07/08 14:03:26;;;;;;;6.97;2.97;;;;;;;;;;10501437;28;20171;-73
2023/07/08 14:08:26;;;;;;;3.92;2.53;;;;;;;;;;10499976;28;20039;-72
2023/07/08 14:13:27;;;;;;;4.60;2.92;;;;;;;;;;10501121;28;20030;-72
2023/07/08 14:18:28;;;;;;;5.22;2.75;;;;;;;;;;10501248;28;20025;-73
2023/07/08 14:23:28;;;;;;;5.05;2.70;;;;;;;;;;10503487;28;20017;-73
2023/07/08 14:28:28;;;;;;;3.90;2.40;;;;;;;;;;10504694;28;20054;-72
2023/07/08 14:33:29;;;;;;;5.68;3.20;;;;;;;;;;10504468;28;20028;-72
2023/07/08 14:38:29;;;;;;;4.23;2.90;;;;;;;;;;10504229;28;20062;-73
2023/07/08 14:43:30;;;;;;;4.93;2.93;;;;;;;;;;10504571;28;20038;-73
2023/07/08 14:48:32;;;;;;;5.22;2.95;;;;;;;;;;10503831;28;20024;-73
2023/07/08 14:53:32;;;;;;;3.97;2.40;;;;;;;;;;10503274;28;20318;-73
2023/07/08 14:58:33;;;;;;;7.47;3.28;;;;;;;;;;10503386;28;20105;-73
2023/07/08 15:03:36;;;;;;;8.32;2.85;;;;;;;;;;10503137;28;20012;-73
2023/07/08 15:08:37;;;;;;;7.32;2.85;;;;;;;;;;10503302;28;20294;-73
2023/07/08 15:13:37;;;;;;;6.00;2.90;;;;;;;;;;10503149;28;20020;-73
2023/07/08 15:18:37;;;;;;;6.38;2.85;;;;;;;;;;10501538;28;20093;-73
2023/07/08 15:23:38;;;;;;;4.00;2.77;;;;;;;;;;10502513;28;20023;-72
2023/07/08 15:28:47;;;;;;;5.97;3.20;;;;;;;;;;10502132;28;20020;-73
2023/07/08 15:33:47;;;;;;;6.00;3.75;;;;;;;;;;10501821;28;20203;-73
2023/07/08 15:38:48;;;;;;;7.30;3.58;;;;;;;;;;10500800;28;20087;-73
2023/07/08 15:43:48;;;;;;;3.47;2.65;;;;;;;;;;10501692;28;20306;-74
2023/07/08 15:48:48;;;;;;;6.85;3.05;;;;;;;;;;10501348;28;20026;-74
2023/07/08 15:53:49;;;;;;;4.53;2.75;;;;;;;;;;10500974;28;20033;-74
2023/07/08 15:58:49;;;;;;;5.40;3.47;;;;;;;;;;10501880;28;20167;-72
2023/07/08 16:03:49;;;;;;;7.20;3.65;;;;;;;;;;10500707;28;20047;-73
2023/07/08 16:08:50;;;;;;;7.60;3.53;;;;;;;;;;10500835;28;20048;-73
2023/07/08 16:13:50;;;;;;;5.50;3.33;;;;;;;;;;10499534;28;20073;-73
2023/07/08 16:18:50;;;;;;;5.05;3.20;;;;;;;;;;10500369;28;20024;-73
2023/07/08 16:23:51;;;;;;;5.03;3.03;;;;;;;;;;10500310;28;20311;-74
2023/07/08 16:28:54;;;;;;;4.38;3.13;;;;;;;;;;10500259;28;20032;-73
2023/07/08 16:33:55;;;;;;;6.93;4.10;;;;;;;;;;10500802;28;20020;-74
2023/07/08 16:38:55;;;;;;;9.45;2.95;;;;;;;;;;10499823;28;20074;-73
2023/07/08 16:43:56;;;;;;;4.88;3.35;;;;;;;;;;10498913;28;20012;-74
2023/07/08 16:48:56;;;;;;;7.45;3.40;;;;;;;;;;10498418;28;20028;-73
2023/07/08 16:54:17;;;;;;;9.80;3.78;;;;;;;;;;10499322;28;20183;-72
2023/07/08 16:59:17;;;;;;;6.70;3.40;;;;;;;;;;10499227;28;20036;-73
2023/07/08 17:04:17;;;;;;;7.65;3.88;;;;;;;;;;10498310;28;20056;-73
2023/07/08 17:09:18;;;;;;;5.60;3.30;;;;;;;;;;10499242;28;20076;-73
2023/07/08 17:14:18;;;;;;;9.20;3.60;;;;;;;;;;10497909;28;20095;-73
2023/07/08 17:19:18;;;;;;;5.57;3.67;;;;;;;;;;10498421;28;20210;-74
2023/07/08 17:24:21;;;;;;;10.77;5.18;;;;;;;;;;10498719;28;20318;-74
2023/07/08 17:29:21;;;;;;;5.60;3.75;;;;;;;;;;10497977;28;20043;-72
2023/07/08 17:34:23;;;;;;;6.03;2.97;;;;;;;;;;10498420;28;20024;-73
2023/07/08 17:39:23;;;;;;;12.50;3.78;;;;;;;;;;10498566;28;20088;-73
2023/07/08 17:44:23;;;;;;;6.60;2.80;;;;;;;;;;10498871;28;20226;-73
2023/07/08 17:49:23;;;;;;;6.10;3.17;;;;;;;;;;10497986;28;20017;-74
2023/07/08 17:54:25;;;;;;;6.45;3.60;;;;;;;;;;10504351;28;20072;-73
2023/07/08 17:59:26;;;;;;;6.30;3.35;;;;;;;;;;10504918;28;20020;-73
2023/07/08 18:04:26;;;;;;;7.07;3.38;;;;;;;;;;10505817;28;20038;-74
2023/07/08 18:09:26;;;;;;;9.10;3.92;;;;;;;;;;10505579;28;20032;-73
2023/07/08 18:14:27;;;;;;;5.43;3.55;;;;;;;;;;10503893;28;20080;-73
2023/07/08 18:19:27;;;;;;;8.50;3.20;;;;;;;;;;10504369;28;20024;-73
2023/07/08 18:24:27;;;;;;;8.25;3.80;;;;;;;;;;10504973;28;20063;-73
2023/07/08 18:29:27;;;;;;;7.30;3.60;;;;;;;;;;10504912;28;20016;-73
2023/07/08 18:34:28;;;;;;;6.50;3.72;;;;;;;;;;10504615;28;20062;-73
2023/07/08 18:39:28;;;;;;;10.07;3.90;;;;;;;;;;10504645;28;20306;-73
2023/07/08 18:44:30;;;;;;;8.57;3.92;;;;;;;;;;10504088;28;20016;-74
2023/07/08 18:49:31;;;;;;;5.30;3.63;;;;;;;;;;10503014;28;20120;-73
2023/07/08 18:54:31;;;;;;;8.88;3.85;;;;;;;;;;10503340;28;20048;-74
2023/07/08 18:59:31;;;;;;;7.32;3.47;;;;;;;;;;10504075;28;20025;-73
2023/07/08 19:04:32;;;;;;;7.07;4.13;;;;;;;;;;10502332;28;20311;-73
2023/07/08 19:09:33;;;;;;;7.60;3.60;;;;;;;;;;10502383;28;20241;-73
2023/07/08 19:14:33;;;;;;;4.35;3.33;;;;;;;;;;10501911;28;20036;-72
2023/07/08 19:19:34;;;;;;;4.55;3.30;;;;;;;;;;10502929;28;20044;-73
2023/07/08 19:24:34;;;;;;;7.18;3.95;;;;;;;;;;10502634;28;20035;-73
2023/07/08 19:29:34;;;;;;;10.65;3.88;;;;;;;;;;10502363;28;20028;-73
2023/07/08 19:34:35;;;;;;;5.72;3.50;;;;;;;;;;10502034;28;20027;-75
2023/07/08 19:39:35;;;;;;;5.93;3.30;;;;;;;;;;10502169;28;20016;-74
2023/07/08 19:44:35;;;;;;;6.40;3.53;;;;;;;;;;10501975;28;20029;-74
2023/07/08 19:49:36;;;;;;;8.00;3.97;;;;;;;;;;10500385;28;20047;-73
2023/07/08 19:54:36;;;;;;;5.80;3.83;;;;;;;;;;10501332;28;20044;-73
2023/07/08 19:59:36;;;;;;;5.93;3.65;;;;;;;;;;10501985;28;20016;-74
2023/07/08 20:04:36;;;;;;;10.38;3.92;;;;;;;;;;10500794;28;20303;-73
2023/07/08 20:09:37;;;;;;;5.60;3.47;;;;;;;;;;10501080;28;20023;-73
2023/07/08 20:14:38;;;;;;;4.72;3.50;;;;;;;;;;10500336;28;20163;-75
2023/07/08 20:19:38;;;;;;;8.45;3.25;;;;;;;;;;10500768;28;20211;-74
2023/07/08 20:24:38;;;;;;;5.30;3.38;;;;;;;;;;10500145;28;20023;-72
2023/07/08 20:29:38;;;;;;;6.70;3.78;;;;;;;;;;10500397;28;20031;-75
2023/07/08 20:34:39;;;;;;;8.63;4.00;;;;;;;;;;10499266;28;20081;-73
2023/07/08 20:39:42;;;;;;;7.22;3.88;;;;;;;;;;10499963;28;20023;-72
2023/07/08 20:44:42;;;;;;;4.63;2.80;;;;;;;;;;10500046;28;20031;-73
2023/07/08 20:49:42;;;;;;;10.18;3.40;;;;;;;;;;10499918;28;20184;-73
2023/07/08 20:54:43;;;;;;;5.50;2.93;;;;;;;;;;10499556;28;20131;-74
2023/07/08 20:59:43;;;;;;;8.45;3.30;;;;;;;;;;10499712;28;20067;-74
2023/07/08 21:04:43;;;;;;;8.40;3.08;;;;;;;;;;10499868;28;20020;-74
2023/07/08 21:09:44;;;;;;;7.40;3.33;;;;;;;;;;10498198;28;20099;-74
2023/07/08 21:14:44;;;;;;;5.70;3.00;;;;;;;;;;10500447;28;20016;-73
2023/07/08 21:19:44;;;;;;;12.30;3.88;;;;;;;;;;10498137;28;20058;-73
2023/07/08 21:30:23;;;;;;;7.60;3.30;;;;;;;;;;10506702;28;20012;-72
2023/07/08 21:35:24;;;;;;;8.35;2.97;;;;;;;;;;10507147;28;20329;-73
2023/07/08 21:40:31;;;;;;;4.53;2.78;;;;;;;;;;10505721;28;20023;-72
2023/07/08 21:45:38;;;;;;;7.38;3.17;;;;;;;;;;10506603;28;20067;-74
2023/07/08 21:50:46;;;;;;;6.35;3.17;;;;;;;;;;10506283;28;20028;-73
2023/07/08 21:55:47;;;;;;;5.53;3.15;;;;;;;;;;10506175;28;20050;-73
2023/07/08 22:00:48;;;;;;;8.98;3.22;;;;;;;;;;10505797;28;20021;-73
2023/07/08 22:05:49;;;;;;;5.50;2.85;;;;;;;;;;10506266;28;20180;-73
2023/07/08 22:10:50;;;;;;;9.18;3.08;;;;;;;;;;10505645;28;20025;-73
2023/07/08 22:15:52;;;;;;;10.35;3.03;;;;;;;;;;10504067;28;20460;-73
2023/07/08 22:21:00;;;;;;;4.13;2.72;;;;;;;;;;10504022;28;20186;-74
2023/07/08 22:26:00;;;;;;;6.32;2.90;;;;;;;;;;10504673;28;20028;-73
2023/07/08 22:31:00;;;;;;;9.60;2.83;;;;;;;;;;10505702;28;20222;-73
2023/07/08 22:36:01;;;;;;;5.30;2.87;;;;;;;;;;10503006;28;20020;-73
2023/07/08 22:41:01;;;;;;;5.40;2.50;;;;;;;;;;10504380;28;20263;-74
2023/07/08 22:46:01;;;;;;;3.78;2.28;;;;;;;;;;10504247;28;20315;-74
2023/07/08 22:51:02;;;;;;;10.25;3.28;;;;;;;;;;10504139;28;20329;-74
2023/07/08 22:56:02;;;;;;;4.65;2.63;;;;;;;;;;10504142;28;20099;-73
2023/07/08 23:01:02;;;;;;;13.10;3.45;;;;;;;;;;10503365;28;20021;-74
2023/07/08 23:06:03;;;;;;;5.45;2.90;;;;;;;;;;10503731;28;20044;-74
2023/07/08 23:11:04;;;;;;;6.78;2.85;;;;;;;;;;10503310;28;20074;-74
2023/07/08 23:16:13;;;;;;;6.32;3.13;;;;;;;;;;10502964;28;20040;-74
2023/07/08 23:21:14;;;;;;;12.68;3.28;;;;;;;;;;10502893;28;20115;-74
2023/07/08 23:26:22;;;;;;;4.60;2.58;;;;;;;;;;10502901;28;20363;-73
2023/07/08 23:31:23;;;;;;;6.82;3.05;;;;;;;;;;10503202;28;20028;-74
2023/07/08 23:36:31;;;;;;;5.05;2.38;;;;;;;;;;10501750;28;20032;-73
2023/07/08 23:41:31;;;;;;;;;;;;;;;;;;10502506;28;20017;-73
2023/07/08 23:46:33;;;;;;;4.03;2.35;;;;;;;;;;10501500;28;20170;-73
2023/07/08 23:51:34;;;;;;;7.35;3.15;;;;;;;;;;10503090;28;20108;-73
2023/07/08 23:56:34;;;;;;;5.47;2.72;;;;;;;;;;10501482;28;20036;-73
